Bondville, VT (05340)

3:52 AM EDT on September 02, 2015 (GMT -0400)
half way up Stratton Mountain | | Change Station
CLOSE
Current Station
Personal Weather Station
Location: Bondville, VT
Elevation: 2550 ft
Nearby Weather Stations

Elev 2550 ft 43.11 °N, 72.92 °W | Updated 3 seconds ago

Partly Cloudy
Partly Cloudy
66.0 °F
Feels Like 66.0 °F
N
6.0
Wind Variable Wind from SW
Gusts 14.0 mph

Today
High -- | Low -- °F
--% Chance of Precip.
Yesterday
High -- | Low -- °F
Precip. -- in
6:16 AM 7:25 PM
Waning Gibbous, 82% visible
Pressure 30.04 in
Visibility 0.2 miles
Clouds
Dew Point 63 °F
Humidity 90%
Rainfall 0.00 in
Snow Depth Not available.
UV Not available.
Pollen 9.30 out of 12
Air Quality Not available.
Flu Activity Not available.
METAR KVSF 020654Z AUTO 00000KT 1/4SM FG VV002 14/14 A3004 RMK AO2 SLP170 T01440144
Pressure 30.04 in
Visibility 0.2 miles
Clouds
Dew Point 63 °F
Humidity 90%
Rainfall 0.00 in
Snow Depth Not available.
UV Not available.
Pollen 9.30 out of 12
Air Quality Not available.
Flu Activity Not available.
METAR KVSF 020654Z AUTO 00000KT 1/4SM FG VV002 14/14 A3004 RMK AO2 SLP170 T01440144

10-Day Weather Forecast

×

Almanac

Astronomy

Sep. 02, 2015 Rise Set
Actual Time
Civil Twilight
Nautical Twilight
Astronomical Twilight
Moon
Length of Visible Light
Length of Day
Tomorrow will be .
, % of the Moon is Illuminated

Today's Extremes

State Highs State Lows

Community

WunderPhotos

Upload Photos

1,851,723 photos uploaded!

WunderBlogs® & News

Nearby

Air Quality

  Air Quality AQ Index Pollutant
Not available.

Snow Depth

Station Depth Elevation

Earthquake Activity

City Distance Mag. Time & Date
Minimum magnitude displayed is 2.5.

Coastal Water Temperatures

Place Temperature

Stations

Nearby Weather Stations

Station Location Temp. Windchill Dew Point Humidity Wind Precip. Elev Updated Type